Kennydale, Washington
Current Conditions -  °F | °C
As of 10:53 AM on Thursday 23 Oct 2014 (Local Time) from KRNT Reporting Station
Overcast Overcast  
Wind Chill: 53°   Ceiling: 5000
Heat Index: 53°   Visibility: 8mi
Dew Point: 50°   Wind: 7mph
Humidity: 89%   Direction: 180°S
Pressure: 29.8"   Gusts: NA
Location:  47.5152°N, 122.184°W
Report Text: KRNT 231753Z 18006KT 8SM SCT040 BKN050 OVC070 12/10 A2980 RMK AO2 RAE50 SLP095 P0000 60012 T01170100 10117 20106 53019
Loading
Personal Weather Stations






























Interactive Weather Map New forecast layout! Learn more

10-Day Weather Forecast

Advertisements
Track Severe Weather on mobile